NCAR-RAP Real-Time Weather Data

Output produced by METARs form (25 July 2017  06:28 UTC)
found at http://weather.rap.ucar.edu/surface/
 
KFZY 250622Z AUTO 32007KT 9SM SCT006 BKN014 OVC019 17/16 A2994 RMK AO2 RAE00 P0000 T01720161
KFZY 250554Z AUTO 33006KT 5SM -RA BR OVC005 17/16 A2994 RMK AO2 CIG 003V010 SLP136 P0000 60003 T01720161 10183 20172 53016
KFZY 250541Z AUTO 32005KT 5SM -RA BR OVC005 17/16 A2993 RMK AO2 P0000 T01720161
KFZY 250454Z AUTO 00000KT 6SM -RA BR OVC008 17/16 A2992 RMK AO2 RAB07E39B50 CIG 006V012 SLP129 P0002 T01720161 402220172
KFZY 250440Z AUTO 00000KT 10SM BKN008 OVC013 17/16 A2992 RMK AO2 RAB07E39 P0002 T01720161
KFZY 250426Z AUTO 00000KT 8SM -RA SCT008 OVC013 17/16 A2991 RMK AO2 RAB07 P0001 T01720156
KFZY 250354Z AUTO 00000KT 10SM OVC017 17/16 A2990 RMK AO2 SLP124 T01720156
KFZY 250338Z AUTO 00000KT 10SM BKN018 BKN030 OVC038 17/16 A2990 RMK AO2 T01720156
KFZY 250254Z AUTO VRB03KT 10SM FEW021 BKN046 OVC080 17/16 A2989 RMK AO2 RAE21 SLP120 P0001 60001 T01720156 51014
KFZY 250154Z AUTO 00000KT 9SM -RA FEW023 SCT045 OVC055 17/16 A2988 RMK AO2 RAB48 SLP118 P0000 T01720156
KFZY 250111Z AUTO VRB03KT 10SM SCT021 BKN045 OVC060 18/15 A2987 RMK AO2 T01780150
KFZY 250054Z AUTO VRB05KT 10SM BKN021 BKN029 OVC042 18/16 A2986 RMK AO2 SLP110 T01780156
KFZY 242354Z AUTO 13004KT 10SM SCT017 BKN029 OVC040 18/16 A2985 RMK AO2 SLP105 60017 T01830161 10222 20183 51017
KFZY 242324Z AUTO VRB03KT 10SM SCT014 SCT018 OVC040 19/17 A2984 RMK AO2 T01940167
KFZY 242254Z AUTO 00000KT 10SM BKN012 OVC027 20/18 A2983 RMK AO2 SLP101 T02000178
KFZY 242154Z AUTO VRB03KT 10SM BKN012 OVC020 21/18 A2981 RMK AO2 RAB18E34 TSE08 SLP093 P0000 T02060183
KFZY 242145Z AUTO 13003KT 10SM BKN011 OVC017 21/18 A2980 RMK AO2 LTG DSNT SE RAB18E34 TSE08 P0000 T02060183
KFZY 242130Z AUTO 13004KT 10SM VCTS -RA BKN011 OVC019 21/18 A2981 RMK AO2 LTG DSNT S RAB18 TSE08 P0000 T02060178
KFZY 242110Z AUTO 05003KT 10SM BKN011 OVC019 22/18 A2980 RMK AO2 LTG DSNT S TSE08 T02170183
KFZY 242054Z AUTO VRB03KT 10SM TS FEW013 BKN019 22/19 A2980 RMK AO2 LTG DSNT SE-SW TSB53 SLP087 60017 T02170189 52010
KFZY 242046Z AUTO VRB03KT 10SM FEW013 BKN019 BKN026 22/19 A2979 RMK AO2 LTG DSNT SE AND SW T02170189
KFZY 242003Z AUTO VRB05KT 10SM FEW007 21/18 A2979 RMK AO2 LTG DSNT SE AND S T02110183
KFZY 241954Z AUTO 12006KT 10SM VCTS SCT007 SCT110 21/19 A2979 RMK AO2 RAE29 TSE03B08E23 SLP084 P0004 T02110189
KFZY 241946Z AUTO VRB04KT 10SM VCTS SCT007 BKN100 21/18 A2979 RMK AO2 RAE29 TSE03B08E23 P0004 T02110183
KFZY 241929Z AUTO VRB03KT 10SM VCTS FEW018 FEW080 BKN100 20/18 A2978 RMK AO2 LTG DSNT S AND SW RAE29 TSE03B08E23 P0004 T02000183
KFZY 241909Z AUTO 14004KT 4SM TSRA BR FEW046 BKN090 OVC110 19/18 A2978 RMK AO2 LTG DSNT SW TSE03B08 P0003 T01940183
KFZY 241854Z AUTO 15005KT 2SM +TSRA BR FEW013 BKN070 OVC090 19/18 A2978 RMK AO2 VIS 1 1/2V2 1/2 LTG DSNT SW RAB02 TSB41 SLP081 P0013 T01940183
KFZY 241843Z AUTO 13004KT 2 1/2SM TSRA BR SCT014 BKN049 OVC070 19/18 A2978 RMK AO2 LTG DSNT SW RAB02 TSB41 P0007 T01940178
KFZY 241840Z AUTO 14005KT 3SM VCTS RA BR SCT016 BKN070 OVC085 19/18 A2978 RMK AO2 RAB02 P0005 T01940178
KFZY 241830Z AUTO VRB05KT 2 1/2SM VCTS RA BR SCT015 BKN031 OVC080 20/18 A2977 RMK AO2 LTG DSNT SW RAB02 P0003 T02000178
KFZY 241823Z AUTO VRB03KT 2 1/2SM VCTS RA BR SCT013 BKN021 OVC080 19/18 A2977 RMK AO2 RAB02 P0002 T01940178
KFZY 241754Z AUTO 13007KT 10SM SCT008 BKN014 BKN030 21/18 A2977 RMK AO2 SLP077 60128 T02110183 10211 20189 56003
KFZY 241654Z AUTO 12007KT 090V150 10SM BKN007 OVC016 21/18 A2977 RMK AO2 SLP078 T02060183
KFZY 241615Z AUTO VRB06KT 10SM BKN007 OVC015 20/18 A2977 RMK AO2 CIG 005V009 T02000183
KFZY 241554Z AUTO 14005KT 10SM FEW005 OVC015 21/19 A2977 RMK AO2 RAE34 SLP076 P0003 T02060194
KFZY 241505Z AUTO VRB04KT 3SM RA BR BKN023 BKN032 OVC090 19/18 A2978 RMK AO2 LTG DSNT E P0002 T01940183
KFZY 241501Z AUTO VRB03KT 2SM RA BR FEW023 BKN030 OVC090 19/18 A2978 RMK AO2 LTG DSNT NE-SE P0001 T01940183
KFZY 241454Z AUTO VRB04KT 1 3/4SM +RA BR BKN022 OVC031 19/18 A2978 RMK AO2 LTG DSNT NE AND SE TSE44 SLP081 P0098 60125 T01890183 53010
KFZY 241447Z AUTO VRB03KT 1 1/4SM +RA BR SCT017 BKN024 OVC031 19/18 A2979 RMK AO2 LTG DSNT SE TSE44 P0094 T01890178
KFZY 241445Z AUTO VRB03KT 1SM VCTS +RA BR BKN019 BKN026 OVC031 19/18 A2979 RMK AO2 LTG DSNT NE AND SE TSE44 P0094 T01890178
KFZY 241424Z AUTO 17006KT 1/4SM +TSRA FG SCT014 OVC020 19/18 A2978 RMK AO2 LTG DSNT ALQDS P0048 T01890178
KFZY 241417Z AUTO 15004KT 1SM +TSRA BR BKN013 OVC028 19/18 A2979 RMK AO2 LTG DSNT ALQDS P0019 T01940178
KFZY 241414Z AUTO VRB04KT 2SM TSRA BR BKN013 BKN023 OVC031 19/18 A2979 RMK AO2 LTG DSNT ALQDS P0009 T01940178
KFZY 241404Z AUTO 00000KT 2SM TSRA BR FEW010 BKN019 OVC080 19/18 A2978 RMK AO2 LTG DSNT ALQDS P0003 T01940183
KFZY 241400Z AUTO VRB03KT 1 1/4SM TSRA BR SCT021 BKN033 OVC080 19/18 A2977 RMK AO2 LTG DSNT ALQDS P0002 T01940178
KFZY 241354Z AUTO 00000KT 1/2SM +TSRA FG FEW021 BKN030 OVC036 19/18 A2976 RMK AO2 LTG DSNT ALQDS RAB1259E20B37 TSB29 SLP076 P0027 T01890183
KFZY 241346Z AUTO 12006KT 3/4SM +TSRA BR SCT021 OVC036 19/18 A2976 RMK AO2 LTG DSNT ALQDS RAB1259E20B37 TSB29 P0018 T01940178
KFZY 241343Z AUTO 17003KT 1 3/4SM TSRA BR SCT021 BKN036 OVC060 19/18 A2977 RMK AO2 LTG DSNT ALQDS RAB1259E20B37 TSB29 P0008 T01940178
KFZY 241335Z AUTO VRB03KT 10SM TS BKN036 OVC065 19/18 A2976 RMK AO2 LTG DSNT SW-N RAB1259E20 TSB29 P0000 T01940178
KFZY 241307Z AUTO VRB04KT 10SM VCTS -RA BKN036 OVC075 19/18 A2975 RMK AO2 LTG DSNT SW-N RAB1259 P0000 T01940178
KFZY 241254Z AUTO 13005KT 10SM BKN038 OVC075 19/18 A2975 RMK AO2 LTG DSNT SW-N RAB1157E41 SLP072 P0000 T01940178
KFZY 241154Z AUTO 13006KT 10SM FEW040 SCT050 OVC065 19/17 A2975 RMK AO2 RAE47 SLP071 P0002 60020 70020 T01890172 10222 20189 50004
KFZY 241054Z AUTO 00000KT 10SM -RA OVC085 19/18 A2975 RMK AO2 LTG DSNT NW SLP071 P0009 T01890178
KFZY 241006Z AUTO 00000KT 4SM RA BR FEW055 OVC070 19/18 A2974 RMK AO2 LTG DSNT N P0003 T01940178
KFZY 240954Z AUTO VRB03KT 6SM VCTS -RA BR FEW047 OVC065 19/18 A2974 RMK AO2 LTG DSNT N RAB11 TSB29E53 SLP068 P0009 T01940178
KFZY 240935Z AUTO 18006KT 4SM TSRA BR FEW046 OVC065 20/18 A2974 RMK AO2 LTG DSNT NE AND W RAB11 TSB29 P0003 T02000178
KFZY 240912Z AUTO 18010KT 10SM VCTS -RA BKN060 BKN080 OVC110 21/17 A2974 RMK AO2 LTG DSNT N AND SW RAB11 P0000 T02110172
KFZY 240854Z AUTO 18009KT 10SM OVC060 21/17 A2974 RMK AO2 LTG DSNT ALQDS RAE02 SLP067 P0000 60000 T02110172 53000
KFZY 240754Z AUTO VRB05KT 10SM -RA FEW025 BKN034 OVC050 22/18 A2972 RMK AO2 LTG DSNT N AND NW RAB07 SLP060 P0000 T02170178
KFZY 240749Z AUTO VRB05KT 10SM -RA SCT027 BKN034 OVC050 22/18 A2972 RMK AO2 LTG DSNT NW RAB07 P0000
KFZY 240654Z AUTO VRB04KT 10SM BKN027 OVC038 22/18 A2974 RMK AO2 SLP066 T02220183
KFZY 240652Z AUTO VRB04KT 10SM BKN029 OVC038 22/18 A2974 RMK AO2
KFZY 240554Z AUTO VRB04KT 10SM FEW043 22/18 A2973 RMK AO2 SLP064 T02220183 10233 20222 56010
KFZY 240454Z AUTO 13004KT 10SM CLR 22/18 A2974 RMK AO2 SLP067 T02220183 402560172
KFZY 240354Z AUTO VRB04KT 10SM CLR 22/18 A2974 RMK AO2 SLP069 T02220178
KFZY 240254Z AUTO VRB05KT 10SM SCT110 22/18 A2976 RMK AO2 SLP075 T02220178 50001
KFZY 240154Z AUTO VRB03KT 10SM FEW050 BKN060 23/18 A2977 RMK AO2 SLP078 T02280178
KFZY 240054Z AUTO 00000KT 10SM FEW055 23/18 A2976 RMK AO2 LTG DSNT NE SLP074 T02280178
KFZY 232354Z AUTO VRB03KT 10SM SCT050 23/18 A2976 RMK AO2 SLP074 T02330178 10256 20233 58003
KFZY 232254Z AUTO VRB03KT 10SM SCT050 OVC085 24/18 A2976 RMK AO2 SLP075 T02390183
KFZY 232154Z AUTO 00000KT 10SM BKN060 OVC080 24/18 A2977 RMK AO2 SLP078 T02440183
KFZY 232054Z AUTO VRB03KT 10SM SCT060 OVC095 24/18 A2977 RMK AO2 SLP078 T02440178 58014
KFZY 231954Z AUTO VRB03KT 10SM BKN065 OVC090 25/18 A2978 RMK AO2 SLP081 T02500183
KFZY 231854Z AUTO VRB05KT 10SM OVC070 24/18 A2980 RMK AO2 SLP089 T02440183
KFZY 231754Z AUTO VRB04KT 10SM SCT080 OVC100 25/18 A2981 RMK AO2 SLP092 T02500183 10256 20200 57001
KFZY 231654Z AUTO VRB04KT 10SM OVC085 25/18 A2981 RMK AO2 SLP092 T02500178
KFZY 231554Z AUTO VRB06KT 10SM BKN090 24/18 A2981 RMK AO2 SLP092 T02440178
KFZY 231454Z AUTO VRB04KT 10SM OVC090 23/18 A2981 RMK AO2 SLP093 T02280178 50002
KFZY 231354Z AUTO VRB04KT 10SM OVC110 23/17 A2982 RMK AO2 SLP095 T02280172
KFZY 231254Z AUTO VRB03KT 10SM FEW110 22/18 A2981 RMK AO2 SLP094 T02170178
KFZY 231154Z AUTO VRB03KT 9SM OVC110 20/18 A2981 RMK AO2 SLP092 70002 T02000178 10200 20172 51009
KFZY 231054Z AUTO 00000KT 9SM OVC100 18/17 A2980 RMK AO2 SLP088 T01830167
KFZY 230954Z AUTO 00000KT 6SM BR OVC100 17/17 A2979 RMK AO2 SLP087 T01720167
KFZY 230854Z AUTO 00000KT 7SM BKN120 18/17 A2978 RMK AO2 SLP083 T01780167 56000
KFZY 230754Z AUTO 00000KT 3SM BR SCT110 17/17 A2978 RMK AO2 SLP083 T01720167
KFZY 230654Z AUTO 00000KT 5SM BR CLR 18/17 A2978 RMK AO2 SLP081 T01780172
KFZY 230603Z AUTO 00000KT 3SM BR CLR 18/17 A2979 RMK AO2 T01780167
KFZY 230554Z AUTO 00000KT 1 3/4SM BR CLR 17/17 A2978 RMK AO2 SLP083 T01720167 10217 20172 58010
KFZY 230523Z AUTO 00000KT 6SM BR CLR 18/17 A2980 RMK AO2 T01780172
KFZY 230513Z AUTO 07003KT 2SM BR CLR 17/17 A2980 RMK AO2 T01720167
KFZY 230510Z AUTO 07003KT 1SM BR CLR 17/17 A2980 RMK AO2 T01720167
KFZY 230501Z AUTO 00000KT 1 1/2SM BR CLR 18/17 A2980 RMK AO2 T01780172
KFZY 230454Z AUTO 00000KT 3SM BR CLR 18/17 A2981 RMK AO2 SLP092 T01780167 402440156
KFZY 230354Z AUTO 00000KT 3SM BR CLR 18/17 A2981 RMK AO2 SLP091 T01780167
KFZY 230328Z AUTO 00000KT 3SM BR CLR 18/17 A2981 RMK AO2 T01780167
KFZY 230318Z AUTO 00000KT 2 1/2SM BR CLR 18/17 A2981 RMK AO2 VIS 1 3/4V4 T01780167
KFZY 230254Z AUTO 00000KT 4SM BR CLR 18/17 A2981 RMK AO2 SLP094 T01830172 50005
KFZY 230154Z AUTO 00000KT 7SM BKN110 19/18 A2982 RMK AO2 SLP096 T01890178
KFZY 230054Z AUTO 00000KT 10SM CLR 20/19 A2980 RMK AO2 SLP090 T02000189
KFZY 222354Z AUTO 00000KT 10SM CLR 22/19 A2980 RMK AO2 SLP089 60002 T02170189 10244 20217 56009
KFZY 222254Z AUTO 00000KT 10SM CLR 23/18 A2980 RMK AO2 SLP090 T02330178
KFZY 222154Z AUTO 00000KT 10SM CLR 23/19 A2981 RMK AO2 RAE33 SLP092 P0000 T02330189
KFZY 222054Z AUTO 00000KT 10SM -RA SCT100 BKN120 23/19 A2983 RMK AO2 RAE22B53 SLP098 P0000 60002 T02280194 58016
KFZY 221954Z AUTO 01003KT 10SM -RA OVC110 23/19 A2985 RMK AO2 SLP107 P0001 T02330194
KFZY 221854Z AUTO 27003KT 3SM -RA OVC100 23/19 A2987 RMK AO2 RAB35 SLP113 P0001 T02280189
KFZY 221754Z AUTO 00000KT 10SM FEW048 SCT075 BKN095 24/17 A2987 RMK AO2 SLP114 T02390172 10239 20200 58008
KFZY 221654Z AUTO 00000KT 10SM FEW110 24/18 A2989 RMK AO2 SLP119 T02390178
KFZY 221554Z AUTO 24005KT 10SM FEW110 23/18 A2990 RMK AO2 SLP122 T02330183
KFZY 221454Z AUTO 22004KT 10SM CLR 23/19 A2990 RMK AO2 SLP122 T02280189 58004
KFZY 221354Z AUTO 21005KT 10SM CLR 23/18 A2991 RMK AO2 SLP126 T02280183
KFZY 221254Z AUTO 20003KT 10SM CLR 22/17 A2990 RMK AO2 SLP122 T02170172
KFZY 221154Z AUTO 00000KT 10SM CLR 20/17 A2991 RMK AO2 SLP125 T02000167 10200 20156 53006
KFZY 221054Z AUTO 00000KT 10SM CLR 18/16 A2990 RMK AO2 SLP123 T01780161
KFZY 220954Z AUTO 00000KT 10SM CLR 16/15 A2990 RMK AO2 SLP123 T01610150
KFZY 220854Z AUTO 00000KT 10SM CLR 17/16 A2989 RMK AO2 SLP119 T01720156 55008
KFZY 220754Z AUTO 00000KT 10SM CLR 17/16 A2988 RMK AO2 SLP115 T01720156
KFZY 220654Z AUTO 00000KT 9SM CLR 17/16 A2991 RMK AO2 SLP124 T01720156
KFZY 220554Z AUTO 00000KT 10SM CLR 18/16 A2992 RMK AO2 SLP127 60000 T01780161 10233 20156 50007
KFZY 220454Z AUTO 22003KT 10SM CLR 18/16 A2992 RMK AO2 SLP127 T01780156 402780156
KFZY 220354Z AUTO 00000KT 10SM CLR 17/16 A2990 RMK AO2 SLP123 T01720156
KFZY 220254Z AUTO 00000KT 10SM CLR 17/15 A2990 RMK AO2 SLP120 60000 T01720150 50001
KFZY 220154Z AUTO 00000KT 10SM CLR 18/16 A2990 RMK AO2 RAB06E28 SLP122 P0000 T01780156
KFZY 220054Z AUTO 24003KT 10SM CLR 21/16 A2990 RMK AO2 SLP123 T02110156
KFZY 212354Z AUTO 26005KT 10SM CLR 23/16 A2989 RMK AO2 SLP120 T02330156 10278 20233 55002
KFZY 212254Z AUTO 30006KT 10SM CLR 25/16 A2989 RMK AO2 SLP119 T02500156
KFZY 212154Z AUTO 29009KT 10SM CLR 26/17 A2989 RMK AO2 SLP120 T02560167
KFZY 212054Z AUTO 29009KT 10SM CLR 26/17 A2990 RMK AO2 SLP122 T02610167 55003
KFZY 211954Z AUTO 29011KT 10SM CLR 27/18 A2990 RMK AO2 SLP121 T02720178
KFZY 211854Z AUTO 28010KT 10SM CLR 27/18 A2991 RMK AO2 SLP125 T02720178
KFZY 211754Z AUTO 27006KT 10SM CLR 28/18 A2991 RMK AO2 SLP124 T02780183 10278 20217 56007
KFZY 211654Z AUTO 27009KT 10SM CLR 27/18 A2991 RMK AO2 SLP124 T02720183
KFZY 211554Z AUTO 25008KT 10SM FEW028 SCT033 27/19 A2992 RMK AO2 SLP130 T02670194
KFZY 211454Z AUTO 25007KT 10SM SCT023 27/21 A2993 RMK AO2 SLP132 T02670206 58002
KFZY 211441Z AUTO 26006KT 10SM SCT020 26/20 A2992 RMK AO2 T02610200
KFZY 211428Z AUTO 29005KT 10SM BKN018 25/20 A2993 RMK AO2 T02500200
KFZY 211354Z AUTO 25007KT 10SM SCT018 SCT022 25/21 A2993 RMK AO2 SLP133 T02500206
KFZY 211347Z AUTO 28009KT 10SM SCT018 SCT024 26/21 A2993 RMK AO2 T02560206
KFZY 211337Z AUTO 29009KT 9SM SCT015 BKN020 BKN026 24/20 A2993 RMK AO2 T02440200
KFZY 211326Z AUTO 26007KT 9SM SCT014 SCT020 25/21 A2993 RMK AO2 T02500206
KFZY 211312Z AUTO VRB06KT 7SM BKN013 24/21 A2993 RMK AO2 T02390206
KFZY 211254Z AUTO VRB04KT 7SM SCT010 24/21 A2993 RMK AO2 SLP133 T02390206
KFZY 211251Z AUTO 28008KT 7SM BKN010 24/21 A2993 RMK AO2 CIG 006V014
KFZY 211219Z AUTO 27005KT 5SM BR FEW007 23/21 A2993 RMK AO2 T02280206
KFZY 211154Z AUTO 27005KT 3SM BR FEW013 22/21 A2993 RMK AO2 SLP133 70005 T02170206 10217 20161 53010
KFZY 211147Z AUTO 26004KT 3SM BR FEW012 22/21 A2993 RMK AO2 T02170206
KFZY 211112Z AUTO 24003KT 3SM BR OVC010 21/19 A2992 RMK AO2 T02060194
KFZY 211054Z AUTO 23003KT 4SM BR OVC008 20/19 A2992 RMK AO2 SLP127 T02000189
KFZY 211039Z AUTO 00000KT 4SM BR BKN008 19/18 A2991 RMK AO2 T01890178
KFZY 211031Z AUTO 00000KT 2 1/2SM BR BKN008 17/17 A2991 RMK AO2 T01720167
KFZY 211026Z AUTO 00000KT 3SM BR SCT008 SCT042 17/16 A2991 RMK AO2 T01720161
KFZY 211003Z AUTO 22003KT 4SM BR BKN043 18/17 A2990 RMK AO2 T01780172
KFZY 210954Z AUTO 00000KT 2SM BR BKN043 17/16 A2991 RMK AO2 SLP125 T01670156
KFZY 210944Z AUTO 00000KT 2 1/2SM BR BKN043 17/16 A2990 RMK AO2 VIS 1V4 T01670156
KFZY 210933Z AUTO 00000KT 1SM BR CLR 16/15 A2991 RMK AO2 T01610150
KFZY 210912Z AUTO 00000KT 2 1/2SM BR CLR 16/16 A2990 RMK AO2 VIS 1 1/4V5 T01610156
KFZY 210854Z AUTO 00000KT 3SM BR BKN042 17/16 A2990 RMK AO2 SLP124 T01670156 53002
KFZY 210754Z AUTO 00000KT 4SM BR SCT012 SCT018 16/16 A2990 RMK AO2 SLP122 T01610156
KFZY 210749Z AUTO 00000KT 4SM BR SCT012 BKN018 17/16 A2989 RMK AO2
KFZY 210731Z AUTO 00000KT 4SM BR FEW014 16/15 A2990 RMK AO2 T01610150
KFZY 210718Z AUTO 00000KT 2SM BR CLR 16/15 A2990 RMK AO2 VIS 1 1/2V3 T01610150
KFZY 210707Z AUTO 00000KT 1 1/4SM BR FEW002 16/15 A2989 RMK AO2 T01610150
KFZY 210654Z AUTO 00000KT 3/4SM BR CLR 16/16 A2990 RMK AO2 SLP123 T01610156
KFZY 210652Z AUTO 00000KT 3/4SM BR CLR 17/16 A2990 RMK AO2
KFZY 210633Z AUTO 00000KT 1 3/4SM BR CLR 17/16 A2990 RMK AO2 T01670156
KFZY 210554Z AUTO 00000KT 3SM BR CLR 17/16 A2990 RMK AO2 SLP122 T01670156 10233 20167 58003
KFZY 210454Z AUTO 00000KT 4SM BR CLR 17/16 A2991 RMK AO2 SLP125 T01720161 402780167
KFZY 210354Z AUTO 00000KT 5SM BR CLR 17/16 A2991 RMK AO2 SLP124 T01670161
KFZY 210254Z AUTO 00000KT 6SM BR CLR 18/17 A2991 RMK AO2 SLP124 T01780167 50006